sensor_id;sensor_type;location;lat;lon;timestamp;pressure;altitude;pressure_sealevel;temperature;humidity
45991;BME280;31721;41.740;-88.000;2023-04-20T00:00:18;98465.47;;;13.31;48.02
45991;BME280;31721;41.740;-88.000;2023-04-20T00:02:47;98466.67;;;13.27;48.09
45991;BME280;31721;41.740;-88.000;2023-04-20T00:05:15;98452.82;;;13.26;47.86
45991;BME280;31721;41.740;-88.000;2023-04-20T00:07:43;98460.68;;;13.19;48.07
45991;BME280;31721;41.740;-88.000;2023-04-20T00:10:10;98463.39;;;12.78;48.75
45991;BME280;31721;41.740;-88.000;2023-04-20T00:12:38;98457.88;;;12.99;48.63
45991;BME280;31721;41.740;-88.000;2023-04-20T00:15:09;98471.79;;;12.97;47.78
45991;BME280;31721;41.740;-88.000;2023-04-20T00:17:37;98482.05;;;12.86;47.78
45991;BME280;31721;41.740;-88.000;2023-04-20T00:20:06;98491.57;;;12.72;50.28
45991;BME280;31721;41.740;-88.000;2023-04-20T00:22:34;98497.28;;;12.73;47.81
45991;BME280;31721;41.740;-88.000;2023-04-20T00:25:03;98495.67;;;12.71;48.48
45991;BME280;31721;41.740;-88.000;2023-04-20T00:27:31;98495.46;;;12.69;47.71
45991;BME280;31721;41.740;-88.000;2023-04-20T00:29:59;98502.11;;;12.55;47.59
45991;BME280;31721;41.740;-88.000;2023-04-20T00:32:27;98511.03;;;12.60;47.37
45991;BME280;31721;41.740;-88.000;2023-04-20T00:34:54;98524.84;;;12.53;47.23
45991;BME280;31721;41.740;-88.000;2023-04-20T00:37:22;98527.50;;;12.35;46.99
45991;BME280;31721;41.740;-88.000;2023-04-20T00:39:50;98530.36;;;12.34;46.47
45991;BME280;31721;41.740;-88.000;2023-04-20T00:42:18;98537.57;;;12.24;46.82
45991;BME280;31721;41.740;-88.000;2023-04-20T00:44:46;98531.80;;;12.14;46.36
45991;BME280;31721;41.740;-88.000;2023-04-20T00:47:14;98537.06;;;11.99;46.50
45991;BME280;31721;41.740;-88.000;2023-04-20T00:49:43;98533.71;;;11.48;47.08
45991;BME280;31721;41.740;-88.000;2023-04-20T00:52:11;98535.91;;;11.60;46.57
45991;BME280;31721;41.740;-88.000;2023-04-20T00:54:39;98545.73;;;11.48;46.42
45991;BME280;31721;41.740;-88.000;2023-04-20T00:57:07;98539.01;;;11.55;46.71
45991;BME280;31721;41.740;-88.000;2023-04-20T00:59:35;98534.96;;;11.34;46.63
45991;BME280;31721;41.740;-88.000;2023-04-20T01:02:03;98534.81;;;11.26;46.18
45991;BME280;31721;41.740;-88.000;2023-04-20T01:04:32;98549.59;;;11.40;46.30
45991;BME280;31721;41.740;-88.000;2023-04-20T01:07:00;98550.56;;;11.35;46.36
45991;BME280;31721;41.740;-88.000;2023-04-20T01:09:28;98548.73;;;11.18;48.85
45991;BME280;31721;41.740;-88.000;2023-04-20T01:11:56;98566.84;;;11.03;46.64
45991;BME280;31721;41.740;-88.000;2023-04-20T01:14:24;98558.38;;;11.13;46.80
45991;BME280;31721;41.740;-88.000;2023-04-20T01:16:52;98556.10;;;10.95;47.69
45991;BME280;31721;41.740;-88.000;2023-04-20T01:19:20;98554.98;;;11.03;46.82
45991;BME280;31721;41.740;-88.000;2023-04-20T01:21:48;98567.59;;;10.93;47.06
45991;BME280;31721;41.740;-88.000;2023-04-20T01:24:16;98571.89;;;10.80;46.84
45991;BME280;31721;41.740;-88.000;2023-04-20T01:26:44;98530.15;;;10.58;48.13
45991;BME280;31721;41.740;-88.000;2023-04-20T01:29:12;98566.42;;;11.04;47.31
45991;BME280;31721;41.740;-88.000;2023-04-20T01:31:40;98569.62;;;10.64;47.16
45991;BME280;31721;41.740;-88.000;2023-04-20T01:34:08;98560.87;;;10.56;46.78
45991;BME280;31721;41.740;-88.000;2023-04-20T01:36:36;98555.66;;;10.30;47.16
45991;BME280;31721;41.740;-88.000;2023-04-20T01:39:03;98582.18;;;10.63;47.67
45991;BME280;31721;41.740;-88.000;2023-04-20T01:41:31;98577.46;;;10.58;47.00
45991;BME280;31721;41.740;-88.000;2023-04-20T01:44:00;98567.82;;;10.45;47.38
45991;BME280;31721;41.740;-88.000;2023-04-20T01:46:28;98565.19;;;10.26;48.61
45991;BME280;31721;41.740;-88.000;2023-04-20T01:48:56;98579.19;;;10.35;47.92
45991;BME280;31721;41.740;-88.000;2023-04-20T01:51:23;98575.92;;;10.19;48.06
45991;BME280;31721;41.740;-88.000;2023-04-20T01:53:51;98582.06;;;10.40;47.62
45991;BME280;31721;41.740;-88.000;2023-04-20T01:56:19;98583.65;;;10.27;47.73
45991;BME280;31721;41.740;-88.000;2023-04-20T01:58:47;98571.81;;;10.12;47.98
45991;BME280;31721;41.740;-88.000;2023-04-20T02:01:15;98592.36;;;10.50;49.04
45991;BME280;31721;41.740;-88.000;2023-04-20T02:03:44;98590.61;;;10.30;47.80
45991;BME280;31721;41.740;-88.000;2023-04-20T02:06:11;98593.10;;;10.24;48.44
45991;BME280;31721;41.740;-88.000;2023-04-20T02:08:39;98606.97;;;10.37;48.10
45991;BME280;31721;41.740;-88.000;2023-04-20T02:11:07;98601.42;;;10.25;48.13
45991;BME280;31721;41.740;-88.000;2023-04-20T02:13:35;98601.41;;;10.30;48.24
45991;BME280;31721;41.740;-88.000;2023-04-20T02:16:03;98600.47;;;10.16;47.80
45991;BME280;31721;41.740;-88.000;2023-04-20T02:18:32;98579.64;;;10.11;48.30
45991;BME280;31721;41.740;-88.000;2023-04-20T02:21:00;98587.96;;;10.21;48.49
45991;BME280;31721;41.740;-88.000;2023-04-20T02:23:28;98600.50;;;10.25;48.47
45991;BME280;31721;41.740;-88.000;2023-04-20T02:25:56;98602.85;;;10.25;48.10
45991;BME280;31721;41.740;-88.000;2023-04-20T02:28:24;98594.15;;;10.31;48.49
45991;BME280;31721;41.740;-88.000;2023-04-20T02:30:52;98580.59;;;10.25;48.53
45991;BME280;31721;41.740;-88.000;2023-04-20T02:33:20;98586.48;;;10.77;48.67
45991;BME280;31721;41.740;-88.000;2023-04-20T02:35:48;98600.17;;;10.69;48.03
45991;BME280;31721;41.740;-88.000;2023-04-20T02:38:16;98599.72;;;10.46;48.12
45991;BME280;31721;41.740;-88.000;2023-04-20T02:40:43;98596.34;;;10.37;48.52
45991;BME280;31721;41.740;-88.000;2023-04-20T02:43:11;98597.65;;;10.05;48.42
45991;BME280;31721;41.740;-88.000;2023-04-20T02:45:39;98595.46;;;10.25;48.21
45991;BME280;31721;41.740;-88.000;2023-04-20T02:48:07;98600.08;;;10.27;48.29
45991;BME280;31721;41.740;-88.000;2023-04-20T02:50:35;98602.44;;;10.22;48.63
45991;BME280;31721;41.740;-88.000;2023-04-20T02:53:03;98609.67;;;10.33;48.69
45991;BME280;31721;41.740;-88.000;2023-04-20T02:55:30;98609.60;;;10.30;49.60
45991;BME280;31721;41.740;-88.000;2023-04-20T02:57:58;98607.13;;;10.33;48.59
45991;BME280;31721;41.740;-88.000;2023-04-20T03:00:27;98603.05;;;10.22;49.37
45991;BME280;31721;41.740;-88.000;2023-04-20T03:02:55;98599.34;;;10.19;49.22
45991;BME280;31721;41.740;-88.000;2023-04-20T03:05:23;98598.44;;;10.33;48.91
45991;BME280;31721;41.740;-88.000;2023-04-20T03:07:51;98600.81;;;10.44;49.16
45991;BME280;31721;41.740;-88.000;2023-04-20T03:10:18;98596.70;;;10.50;48.80
45991;BME280;31721;41.740;-88.000;2023-04-20T03:12:45;98596.89;;;10.46;48.80
45991;BME280;31721;41.740;-88.000;2023-04-20T03:15:14;98592.85;;;10.59;49.00
45991;BME280;31721;41.740;-88.000;2023-04-20T03:17:41;98586.22;;;10.68;49.23
45991;BME280;31721;41.740;-88.000;2023-04-20T03:20:10;98579.45;;;10.50;49.10
45991;BME280;31721;41.740;-88.000;2023-04-20T03:22:38;98576.85;;;10.59;49.29
45991;BME280;31721;41.740;-88.000;2023-04-20T03:25:07;98576.87;;;10.61;49.37
45991;BME280;31721;41.740;-88.000;2023-04-20T03:27:34;98574.12;;;10.63;49.25
45991;BME280;31721;41.740;-88.000;2023-04-20T03:30:03;98571.37;;;10.50;48.68
45991;BME280;31721;41.740;-88.000;2023-04-20T03:32:30;98578.82;;;10.60;49.14
45991;BME280;31721;41.740;-88.000;2023-04-20T03:34:58;98580.40;;;10.69;49.01
45991;BME280;31721;41.740;-88.000;2023-04-20T03:37:26;98577.30;;;10.77;48.98
45991;BME280;31721;41.740;-88.000;2023-04-20T03:39:54;98577.44;;;10.69;48.93
45991;BME280;31721;41.740;-88.000;2023-04-20T03:42:22;98575.02;;;10.88;49.01
45991;BME280;31721;41.740;-88.000;2023-04-20T03:44:50;98577.52;;;10.95;49.18
45991;BME280;31721;41.740;-88.000;2023-04-20T03:47:18;98574.52;;;10.93;49.00
45991;BME280;31721;41.740;-88.000;2023-04-20T03:49:45;98575.02;;;10.89;49.02
45991;BME280;31721;41.740;-88.000;2023-04-20T03:52:13;98571.95;;;11.00;49.17
45991;BME280;31721;41.740;-88.000;2023-04-20T03:54:41;98570.06;;;11.10;49.39
45991;BME280;31721;41.740;-88.000;2023-04-20T03:57:09;98576.61;;;11.00;49.16
45991;BME280;31721;41.740;-88.000;2023-04-20T03:59:36;98569.67;;;11.07;49.02
45991;BME280;31721;41.740;-88.000;2023-04-20T04:02:05;98565.82;;;11.03;49.37
45991;BME280;31721;41.740;-88.000;2023-04-20T04:04:32;98564.36;;;11.10;49.47
45991;BME280;31721;41.740;-88.000;2023-04-20T04:07:00;98562.44;;;11.17;49.49
45991;BME280;31721;41.740;-88.000;2023-04-20T04:09:28;98559.67;;;11.29;49.58
45991;BME280;31721;41.740;-88.000;2023-04-20T04:11:56;98558.61;;;11.15;49.90
45991;BME280;31721;41.740;-88.000;2023-04-20T04:14:24;98558.11;;;11.30;49.72
45991;BME280;31721;41.740;-88.000;2023-04-20T04:16:51;98558.35;;;11.32;49.80
45991;BME280;31721;41.740;-88.000;2023-04-20T04:19:18;98558.35;;;11.48;49.99
45991;BME280;31721;41.740;-88.000;2023-04-20T04:21:46;98554.58;;;11.46;50.08
45991;BME280;31721;41.740;-88.000;2023-04-20T04:24:15;98554.15;;;11.60;50.07
45991;BME280;31721;41.740;-88.000;2023-04-20T04:26:43;98551.66;;;11.71;50.28
45991;BME280;31721;41.740;-88.000;2023-04-20T04:29:10;98550.56;;;11.77;50.27
45991;BME280;31721;41.740;-88.000;2023-04-20T04:31:38;98546.67;;;11.80;50.15
45991;BME280;31721;41.740;-88.000;2023-04-20T04:34:05;98542.27;;;11.75;50.27
45991;BME280;31721;41.740;-88.000;2023-04-20T04:36:34;98544.02;;;11.81;49.75
45991;BME280;31721;41.740;-88.000;2023-04-20T04:39:02;98551.52;;;11.90;49.94
45991;BME280;31721;41.740;-88.000;2023-04-20T04:41:30;98551.61;;;11.92;49.74
45991;BME280;31721;41.740;-88.000;2023-04-20T04:43:57;98549.67;;;11.91;49.94
45991;BME280;31721;41.740;-88.000;2023-04-20T04:46:25;98546.93;;;11.97;49.95
45991;BME280;31721;41.740;-88.000;2023-04-20T04:48:53;98547.72;;;11.82;49.85
45991;BME280;31721;41.740;-88.000;2023-04-20T04:51:21;98544.22;;;11.79;49.90
45991;BME280;31721;41.740;-88.000;2023-04-20T04:53:48;98545.71;;;11.99;49.91
45991;BME280;31721;41.740;-88.000;2023-04-20T04:56:16;98549.53;;;12.05;49.90
45991;BME280;31721;41.740;-88.000;2023-04-20T04:58:44;98545.50;;;12.03;49.98
45991;BME280;31721;41.740;-88.000;2023-04-20T05:01:13;98540.15;;;11.98;49.95
45991;BME280;31721;41.740;-88.000;2023-04-20T05:03:41;98538.76;;;11.91;49.90
45991;BME280;31721;41.740;-88.000;2023-04-20T05:06:08;98530.16;;;12.06;49.84
45991;BME280;31721;41.740;-88.000;2023-04-20T05:08:36;98527.79;;;11.98;49.84
45991;BME280;31721;41.740;-88.000;2023-04-20T05:11:04;98528.84;;;11.98;50.08
45991;BME280;31721;41.740;-88.000;2023-04-20T05:13:32;98533.56;;;11.93;50.07
45991;BME280;31721;41.740;-88.000;2023-04-20T05:16:00;98533.00;;;12.08;50.06
45991;BME280;31721;41.740;-88.000;2023-04-20T05:18:27;98536.45;;;11.93;50.00
45991;BME280;31721;41.740;-88.000;2023-04-20T05:20:55;98537.07;;;12.09;50.23
45991;BME280;31721;41.740;-88.000;2023-04-20T05:23:23;98523.60;;;11.94;50.26
45991;BME280;31721;41.740;-88.000;2023-04-20T05:25:51;98525.30;;;11.98;50.35
45991;BME280;31721;41.740;-88.000;2023-04-20T05:28:19;98525.45;;;11.90;50.27
45991;BME280;31721;41.740;-88.000;2023-04-20T05:30:47;98530.92;;;12.01;50.71
45991;BME280;31721;41.740;-88.000;2023-04-20T05:33:15;98531.61;;;12.23;51.42
45991;BME280;31721;41.740;-88.000;2023-04-20T05:35:43;98521.16;;;12.02;50.96
45991;BME280;31721;41.740;-88.000;2023-04-20T05:38:10;98515.19;;;11.85;51.16
45991;BME280;31721;41.740;-88.000;2023-04-20T05:40:38;98524.12;;;11.93;51.10
45991;BME280;31721;41.740;-88.000;2023-04-20T05:43:06;98520.75;;;11.96;51.39
45991;BME280;31721;41.740;-88.000;2023-04-20T05:45:34;98517.99;;;11.99;51.57
45991;BME280;31721;41.740;-88.000;2023-04-20T05:48:02;98514.46;;;11.97;51.54
45991;BME280;31721;41.740;-88.000;2023-04-20T05:50:30;98510.97;;;12.08;51.61
45991;BME280;31721;41.740;-88.000;2023-04-20T05:52:58;98504.74;;;12.06;51.77
45991;BME280;31721;41.740;-88.000;2023-04-20T05:55:26;98498.72;;;12.10;51.92
45991;BME280;31721;41.740;-88.000;2023-04-20T05:57:54;98497.11;;;12.06;51.94
45991;BME280;31721;41.740;-88.000;2023-04-20T06:00:22;98490.86;;;12.08;51.99
45991;BME280;31721;41.740;-88.000;2023-04-20T06:02:50;98482.03;;;12.10;52.41
45991;BME280;31721;41.740;-88.000;2023-04-20T06:05:18;98481.68;;;12.14;52.44
45991;BME280;31721;41.740;-88.000;2023-04-20T06:07:46;98480.73;;;12.17;52.47
45991;BME280;31721;41.740;-88.000;2023-04-20T06:10:14;98474.72;;;12.21;52.68
45991;BME280;31721;41.740;-88.000;2023-04-20T06:12:42;98473.81;;;12.24;52.62
45991;BME280;31721;41.740;-88.000;2023-04-20T06:15:10;98472.46;;;12.26;52.70
45991;BME280;31721;41.740;-88.000;2023-04-20T06:17:38;98466.89;;;12.28;52.77
45991;BME280;31721;41.740;-88.000;2023-04-20T06:20:07;98471.05;;;12.32;52.83
45991;BME280;31721;41.740;-88.000;2023-04-20T06:22:35;98471.22;;;12.34;52.82
45991;BME280;31721;41.740;-88.000;2023-04-20T06:25:04;98474.38;;;12.36;52.75
45991;BME280;31721;41.740;-88.000;2023-04-20T06:27:32;98474.78;;;12.38;52.80
45991;BME280;31721;41.740;-88.000;2023-04-20T06:30:00;98476.62;;;12.39;52.97
45991;BME280;31721;41.740;-88.000;2023-04-20T06:32:28;98477.25;;;12.42;52.94
45991;BME280;31721;41.740;-88.000;2023-04-20T06:34:56;98480.41;;;12.44;53.07
45991;BME280;31721;41.740;-88.000;2023-04-20T06:37:23;98474.37;;;12.45;52.98
45991;BME280;31721;41.740;-88.000;2023-04-20T06:39:53;98473.89;;;12.48;53.05
45991;BME280;31721;41.740;-88.000;2023-04-20T06:42:21;98475.59;;;12.45;53.16
45991;BME280;31721;41.740;-88.000;2023-04-20T06:44:49;98474.89;;;12.56;53.10
45991;BME280;31721;41.740;-88.000;2023-04-20T06:47:17;98466.80;;;12.57;53.26
45991;BME280;31721;41.740;-88.000;2023-04-20T06:49:45;98462.31;;;12.60;53.09
45991;BME280;31721;41.740;-88.000;2023-04-20T06:52:12;98458.40;;;12.55;53.13
45991;BME280;31721;41.740;-88.000;2023-04-20T06:54:40;98455.20;;;12.64;53.38
45991;BME280;31721;41.740;-88.000;2023-04-20T06:57:08;98450.57;;;12.66;53.32
45991;BME280;31721;41.740;-88.000;2023-04-20T06:59:36;98448.76;;;12.70;53.39
45991;BME280;31721;41.740;-88.000;2023-04-20T07:02:04;98450.11;;;12.74;53.46
45991;BME280;31721;41.740;-88.000;2023-04-20T07:04:32;98451.70;;;12.71;53.40
45991;BME280;31721;41.740;-88.000;2023-04-20T07:07:00;98449.66;;;12.82;53.22
45991;BME280;31721;41.740;-88.000;2023-04-20T07:09:28;98447.19;;;12.90;53.42
45991;BME280;31721;41.740;-88.000;2023-04-20T07:11:56;98446.00;;;12.81;53.45
45991;BME280;31721;41.740;-88.000;2023-04-20T07:14:24;98445.50;;;12.96;53.48
45991;BME280;31721;41.740;-88.000;2023-04-20T07:16:52;98439.66;;;13.11;53.80
45991;BME280;31721;41.740;-88.000;2023-04-20T07:19:19;98436.64;;;13.10;53.72
45991;BME280;31721;41.740;-88.000;2023-04-20T07:21:47;98431.29;;;13.14;53.51
45991;BME280;31721;41.740;-88.000;2023-04-20T07:24:15;98431.00;;;13.39;53.68
45991;BME280;31721;41.740;-88.000;2023-04-20T07:26:43;98435.52;;;13.56;53.35
45991;BME280;31721;41.740;-88.000;2023-04-20T07:29:11;98439.17;;;13.59;53.38
45991;BME280;31721;41.740;-88.000;2023-04-20T07:31:39;98431.20;;;13.62;53.24
45991;BME280;31721;41.740;-88.000;2023-04-20T07:34:07;98431.54;;;13.74;53.20
45991;BME280;31721;41.740;-88.000;2023-04-20T07:36:34;98433.81;;;14.04;52.90
45991;BME280;31721;41.740;-88.000;2023-04-20T07:39:02;98436.78;;;14.04;52.83
45991;BME280;31721;41.740;-88.000;2023-04-20T07:41:30;98439.41;;;14.28;52.26
45991;BME280;31721;41.740;-88.000;2023-04-20T07:43:58;98444.62;;;14.33;52.30
45991;BME280;31721;41.740;-88.000;2023-04-20T07:46:26;98442.18;;;14.48;52.18
45991;BME280;31721;41.740;-88.000;2023-04-20T07:48:54;98450.97;;;14.42;51.90
45991;BME280;31721;41.740;-88.000;2023-04-20T07:51:21;98454.74;;;14.54;51.92
45991;BME280;31721;41.740;-88.000;2023-04-20T07:53:49;98450.77;;;14.49;51.64
45991;BME280;31721;41.740;-88.000;2023-04-20T07:56:17;98457.50;;;14.71;51.66
45991;BME280;31721;41.740;-88.000;2023-04-20T07:58:45;98453.23;;;14.68;51.54
45991;BME280;31721;41.740;-88.000;2023-04-20T08:01:13;98451.05;;;14.86;51.14
45991;BME280;31721;41.740;-88.000;2023-04-20T08:03:41;98455.22;;;15.04;50.85
45991;BME280;31721;41.740;-88.000;2023-04-20T08:06:09;98456.47;;;15.34;50.77
45991;BME280;31721;41.740;-88.000;2023-04-20T08:08:37;98454.49;;;15.32;50.70
45991;BME280;31721;41.740;-88.000;2023-04-20T08:11:05;98451.40;;;15.20;50.65
45991;BME280;31721;41.740;-88.000;2023-04-20T08:13:32;98453.07;;;15.12;50.56
45991;BME280;31721;41.740;-88.000;2023-04-20T08:16:00;98446.93;;;15.21;50.38
45991;BME280;31721;41.740;-88.000;2023-04-20T08:18:28;98443.62;;;15.23;50.40
45991;BME280;31721;41.740;-88.000;2023-04-20T08:20:56;98441.27;;;15.37;49.91
45991;BME280;31721;41.740;-88.000;2023-04-20T08:23:25;98440.57;;;15.17;49.32
45991;BME280;31721;41.740;-88.000;2023-04-20T08:25:53;98446.75;;;15.44;49.95
45991;BME280;31721;41.740;-88.000;2023-04-20T08:28:21;98449.54;;;15.51;49.72
45991;BME280;31721;41.740;-88.000;2023-04-20T08:30:50;98458.70;;;15.59;49.39
45991;BME280;31721;41.740;-88.000;2023-04-20T08:33:17;98455.77;;;15.28;49.50
45991;BME280;31721;41.740;-88.000;2023-04-20T08:35:45;98463.88;;;15.46;49.60
45991;BME280;31721;41.740;-88.000;2023-04-20T08:38:13;98464.21;;;15.63;49.75
45991;BME280;31721;41.740;-88.000;2023-04-20T08:40:41;98457.98;;;15.57;48.72
45991;BME280;31721;41.740;-88.000;2023-04-20T08:43:09;98453.37;;;15.31;48.79
45991;BME280;31721;41.740;-88.000;2023-04-20T08:45:39;98453.10;;;15.65;49.06
45991;BME280;31721;41.740;-88.000;2023-04-20T08:48:09;98451.81;;;15.76;48.98
45991;BME280;31721;41.740;-88.000;2023-04-20T08:50:40;98443.52;;;15.94;49.07
45991;BME280;31721;41.740;-88.000;2023-04-20T08:53:08;98436.54;;;15.99;48.39
45991;BME280;31721;41.740;-88.000;2023-04-20T08:55:36;98429.50;;;16.03;48.62
45991;BME280;31721;41.740;-88.000;2023-04-20T08:58:03;98418.15;;;16.04;48.01
45991;BME280;31721;41.740;-88.000;2023-04-20T09:00:31;98412.07;;;16.04;48.61
45991;BME280;31721;41.740;-88.000;2023-04-20T09:02:59;98415.81;;;16.14;48.58
45991;BME280;31721;41.740;-88.000;2023-04-20T09:05:29;98417.19;;;16.15;48.50
45991;BME280;31721;41.740;-88.000;2023-04-20T09:07:59;98413.26;;;16.22;48.35
45991;BME280;31721;41.740;-88.000;2023-04-20T09:10:38;98412.78;;;15.98;48.23
45991;BME280;31721;41.740;-88.000;2023-04-20T09:13:07;98419.49;;;15.99;48.07
45991;BME280;31721;41.740;-88.000;2023-04-20T09:15:35;98420.89;;;16.09;47.72
45991;BME280;31721;41.740;-88.000;2023-04-20T09:18:11;98413.96;;;16.08;48.43
45991;BME280;31721;41.740;-88.000;2023-04-20T09:20:39;98415.89;;;16.18;48.02
45991;BME280;31721;41.740;-88.000;2023-04-20T09:23:11;98420.59;;;16.16;48.32
45991;BME280;31721;41.740;-88.000;2023-04-20T09:25:40;98422.75;;;16.22;48.03
45991;BME280;31721;41.740;-88.000;2023-04-20T09:28:09;98431.77;;;16.51;47.84
45991;BME280;31721;41.740;-88.000;2023-04-20T09:30:38;98452.64;;;16.57;47.73
45991;BME280;31721;41.740;-88.000;2023-04-20T09:33:07;98461.95;;;16.67;47.47
45991;BME280;31721;41.740;-88.000;2023-04-20T09:35:34;98463.83;;;16.73;47.90
45991;BME280;31721;41.740;-88.000;2023-04-20T09:38:02;98459.23;;;16.71;48.10
45991;BME280;31721;41.740;-88.000;2023-04-20T09:40:31;98449.00;;;17.26;45.30
45991;BME280;31721;41.740;-88.000;2023-04-20T09:43:08;98460.37;;;17.39;45.52
45991;BME280;31721;41.740;-88.000;2023-04-20T09:45:38;98437.35;;;17.69;45.42
45991;BME280;31721;41.740;-88.000;2023-04-20T09:48:07;98424.76;;;17.61;44.92
45991;BME280;31721;41.740;-88.000;2023-04-20T09:50:35;98409.23;;;17.45;45.95
45991;BME280;31721;41.740;-88.000;2023-04-20T09:53:04;98397.70;;;17.45;45.92
45991;BME280;31721;41.740;-88.000;2023-04-20T09:55:33;98397.06;;;17.19;46.57
45991;BME280;31721;41.740;-88.000;2023-04-20T09:58:03;98393.67;;;17.28;46.87
45991;BME280;31721;41.740;-88.000;2023-04-20T10:00:31;98404.16;;;17.20;47.51
45991;BME280;31721;41.740;-88.000;2023-04-20T10:02:59;98410.56;;;17.24;47.55
45991;BME280;31721;41.740;-88.000;2023-04-20T10:05:34;98419.12;;;17.16;47.44
45991;BME280;31721;41.740;-88.000;2023-04-20T10:08:03;98434.67;;;16.57;47.86
45991;BME280;31721;41.740;-88.000;2023-04-20T10:10:42;98437.69;;;16.47;47.86
45991;BME280;31721;41.740;-88.000;2023-04-20T10:13:11;98428.66;;;16.37;47.90
45991;BME280;31721;41.740;-88.000;2023-04-20T10:15:40;98421.41;;;16.44;48.16
45991;BME280;31721;41.740;-88.000;2023-04-20T10:18:17;98418.66;;;16.20;48.01
45991;BME280;31721;41.740;-88.000;2023-04-20T10:20:45;98419.98;;;16.21;48.28
45991;BME280;31721;41.740;-88.000;2023-04-20T10:23:13;98418.13;;;16.18;48.24
45991;BME280;31721;41.740;-88.000;2023-04-20T10:25:41;98421.50;;;16.36;48.22
45991;BME280;31721;41.740;-88.000;2023-04-20T10:28:09;98418.01;;;16.44;48.18
45991;BME280;31721;41.740;-88.000;2023-04-20T10:30:48;98409.15;;;16.41;48.22
45991;BME280;31721;41.740;-88.000;2023-04-20T10:33:16;98398.85;;;16.43;48.44
45991;BME280;31721;41.740;-88.000;2023-04-20T10:35:46;98395.54;;;16.33;47.94
45991;BME280;31721;41.740;-88.000;2023-04-20T10:38:14;98399.12;;;16.20;48.23
45991;BME280;31721;41.740;-88.000;2023-04-20T10:40:42;98395.34;;;16.16;48.27
45991;BME280;31721;41.740;-88.000;2023-04-20T10:43:18;98392.15;;;15.78;48.51
45991;BME280;31721;41.740;-88.000;2023-04-20T10:45:46;98373.45;;;16.02;48.26
45991;BME280;31721;41.740;-88.000;2023-04-20T10:48:14;98358.07;;;16.17;48.13
45991;BME280;31721;41.740;-88.000;2023-04-20T10:50:42;98344.57;;;16.11;48.08
45991;BME280;31721;41.740;-88.000;2023-04-20T10:53:19;98335.02;;;16.06;48.49
45991;BME280;31721;41.740;-88.000;2023-04-20T10:55:57;98354.94;;;16.37;48.69
45991;BME280;31721;41.740;-88.000;2023-04-20T10:58:25;98344.04;;;15.93;49.01
45991;BME280;31721;41.740;-88.000;2023-04-20T11:01:02;98319.41;;;16.07;48.96
45991;BME280;31721;41.740;-88.000;2023-04-20T11:03:31;98344.27;;;15.74;49.84
45991;BME280;31721;41.740;-88.000;2023-04-20T11:05:59;98346.15;;;15.71;49.66
45991;BME280;31721;41.740;-88.000;2023-04-20T11:08:42;98317.26;;;15.63;50.22
45991;BME280;31721;41.740;-88.000;2023-04-20T11:11:19;98294.93;;;15.80;50.17
45991;BME280;31721;41.740;-88.000;2023-04-20T11:13:47;98303.11;;;15.99;49.66
45991;BME280;31721;41.740;-88.000;2023-04-20T11:16:16;98340.68;;;15.56;50.75
45991;BME280;31721;41.740;-88.000;2023-04-20T11:18:53;98331.29;;;15.81;50.34
45991;BME280;31721;41.740;-88.000;2023-04-20T11:21:21;98344.10;;;15.71;50.79
45991;BME280;31721;41.740;-88.000;2023-04-20T11:23:50;98361.98;;;15.63;50.62
45991;BME280;31721;41.740;-88.000;2023-04-20T11:26:17;98347.63;;;15.70;50.69
45991;BME280;31721;41.740;-88.000;2023-04-20T11:28:53;98342.72;;;15.44;51.53
45991;BME280;31721;41.740;-88.000;2023-04-20T11:31:21;98325.21;;;15.46;50.71
45991;BME280;31721;41.740;-88.000;2023-04-20T11:33:48;98320.42;;;15.37;51.32
45991;BME280;31721;41.740;-88.000;2023-04-20T11:36:18;98324.73;;;15.67;50.88
45991;BME280;31721;41.740;-88.000;2023-04-20T11:38:46;98329.17;;;15.34;51.70
45991;BME280;31721;41.740;-88.000;2023-04-20T11:41:15;98338.65;;;15.19;51.07
45991;BME280;31721;41.740;-88.000;2023-04-20T11:43:42;98335.24;;;15.32;51.19
45991;BME280;31721;41.740;-88.000;2023-04-20T11:46:15;98333.70;;;15.24;51.28
45991;BME280;31721;41.740;-88.000;2023-04-20T11:48:43;98340.54;;;15.20;51.28
45991;BME280;31721;41.740;-88.000;2023-04-20T11:51:11;98340.19;;;15.10;51.85
45991;BME280;31721;41.740;-88.000;2023-04-20T11:53:39;98342.40;;;15.09;51.66
45991;BME280;31721;41.740;-88.000;2023-04-20T11:56:07;98350.56;;;15.44;50.82
45991;BME280;31721;41.740;-88.000;2023-04-20T11:58:36;98355.40;;;15.48;51.29
45991;BME280;31721;41.740;-88.000;2023-04-20T12:01:04;98355.76;;;15.47;51.12
45991;BME280;31721;41.740;-88.000;2023-04-20T12:03:31;98362.73;;;15.62;50.87
45991;BME280;31721;41.740;-88.000;2023-04-20T12:05:59;98363.17;;;15.69;50.84
45991;BME280;31721;41.740;-88.000;2023-04-20T12:08:28;98360.71;;;15.69;51.08
45991;BME280;31721;41.740;-88.000;2023-04-20T12:10:56;98367.23;;;15.81;50.71
45991;BME280;31721;41.740;-88.000;2023-04-20T12:13:24;98378.09;;;15.70;50.96
45991;BME280;31721;41.740;-88.000;2023-04-20T12:15:52;98382.64;;;15.73;50.77
45991;BME280;31721;41.740;-88.000;2023-04-20T12:18:20;98393.47;;;16.04;50.42
45991;BME280;31721;41.740;-88.000;2023-04-20T12:20:47;98398.35;;;16.04;50.08
45991;BME280;31721;41.740;-88.000;2023-04-20T12:23:15;98408.91;;;16.10;49.76
45991;BME280;31721;41.740;-88.000;2023-04-20T12:25:43;98410.24;;;16.06;49.96
45991;BME280;31721;41.740;-88.000;2023-04-20T12:28:11;98429.44;;;16.52;49.09
45991;BME280;31721;41.740;-88.000;2023-04-20T12:30:39;98446.12;;;16.59;49.12
45991;BME280;31721;41.740;-88.000;2023-04-20T12:33:07;98438.91;;;16.35;49.20
45991;BME280;31721;41.740;-88.000;2023-04-20T12:35:35;98426.83;;;16.45;49.30
45991;BME280;31721;41.740;-88.000;2023-04-20T12:38:02;98403.95;;;16.42;48.97
45991;BME280;31721;41.740;-88.000;2023-04-20T12:40:30;98404.10;;;16.56;49.29
45991;BME280;31721;41.740;-88.000;2023-04-20T12:42:58;98401.45;;;16.62;49.29
45991;BME280;31721;41.740;-88.000;2023-04-20T12:45:26;98401.43;;;16.48;48.65